This is the latest recevied weather packets stored in our database for station/object DL4ABR-6. If no packets are shown the sender has not sent any weather packets the latest 10 day(s).
| Time | Temp. | Humidity | Pressure | Rain* | Wind** | Luminosity | Snow |
|---|---|---|---|---|---|---|---|
| 1777897555 | 22.22° C | 52% | 1008.6 hPa | 0 mm | - | - | - |
| 1777896735 | 22.78° C | 54% | 1008.6 hPa | 0 mm | - | - | - |
| 1777895935 | 22.22° C | 53% | 1008.9 hPa | 0 mm | - | - | - |
| 1777895065 | 21.67° C | 57% | 1008.9 hPa | 0 mm | - | - | - |
| 1777894290 | 20.56° C | 60% | 1008.8 hPa | 0 mm | - | - | - |
| 1777893495 | 20.56° C | 59% | 1008.7 hPa | 0 mm | - | - | - |
| 1777892630 | 21.11° C | 58% | 1008.7 hPa | 0 mm | - | - | - |
| 1777891790 | 22.22° C | 58% | 1008.9 hPa | 0 mm | - | - | - |
| 1777890990 | 21.11° C | 60% | 1009 hPa | 0 mm | - | - | - |
| 1777890130 | 21.11° C | 62% | 1009.2 hPa | 0 mm | - | - | - |
| 1777889410 | 18.89° C | 69% | 1009.2 hPa | 0 mm | - | - | - |
| 1777888545 | 19.44° C | 67% | 1009.2 hPa | 0 mm | - | - | - |
| 1777887805 | 20° C | 64% | 1009.2 hPa | 0 mm | - | - | - |
| 1777886935 | 19.44° C | 67% | 1009.3 hPa | 0 mm | - | - | - |
| 1777886130 | 18.89° C | 70% | 1009.3 hPa | 0 mm | - | - | - |
| 1777885275 | 18.89° C | 72% | 1009.2 hPa | 0 mm | - | - | - |
| 1777884498 | 17.78° C | 73% | 1009.4 hPa | 0 mm | - | - | - |
| 1777883760 | 18.33° C | 72% | 1009.4 hPa | 0 mm | - | - | - |
| 1777882890 | 18.89° C | 71% | 1009.2 hPa | 0 mm | - | - | - |
| 1777882055 | 18.89° C | 72% | 1009.2 hPa | 0 mm | - | - | - |
| 1777881275 | 17.22° C | 75% | 1009.5 hPa | 0 mm | - | - | - |
| 1777880515 | 16.67° C | 76% | 1009.1 hPa | 0 mm | - | - | - |
| 1777879685 | 17.22° C | 75% | 1009 hPa | 0 mm | - | - | - |
| 1777878815 | 16.67° C | 75% | 1008.9 hPa | 0 mm | - | - | - |
| 1777878051 | 16.67° C | 75% | 1009 hPa | 0 mm | - | - | - |
* Rain since midnight (hover to see other rain measurements)
** Current wind speed in m/s (hover to see current wind gust speed)